Time;durP1;ratioP1;P1;durP2;ratioP2;P2;SDS_P1;SDS_P2;PMS_P1;PMS_P2;Temp;Humidity;BMP_temperature;BMP_pressure;BME280_temperature;BME280_humidity;BME280_pressure;Samples;Min_cycle;Max_cycle;Signal;HPM_P1;HPM_P2
2022/11/14 00:01:57;;;;;;;10.93;7.50;;;;;;;;;;6063258;23;20023;-42
2022/11/14 00:04:22;;;;;;;15.40;7.65;;;;;;;;;;6063719;23;20042;-43
2022/11/14 00:06:47;;;;;;;12.13;8.20;;;;;;;;;;6062395;23;20019;-43
2022/11/14 00:09:13;;;;;;;11.82;8.05;;;;;;;;;;6062971;23;20015;-42
2022/11/14 00:11:38;;;;;;;12.45;7.75;;;;;;;;;;6064416;23;20063;-46
2022/11/14 00:14:04;;;;;;;18.80;8.02;;;;;;;;;;6063638;23;20779;-43
2022/11/14 00:16:29;;;;;;;16.30;7.60;;;;;;;;;;6063779;23;20007;-43
2022/11/14 00:18:54;;;;;;;12.40;7.53;;;;;;;;;;6063464;23;20019;-42
2022/11/14 00:21:20;;;;;;;13.57;7.75;;;;;;;;;;6038575;23;20085;-42
2022/11/14 00:23:45;;;;;;;15.50;6.90;;;;;;;;;;6062696;23;20394;-42
2022/11/14 00:26:10;;;;;;;14.05;7.03;;;;;;;;;;6063760;23;20020;-42
2022/11/14 00:28:36;;;;;;;11.35;7.10;;;;;;;;;;6063433;23;20043;-42
2022/11/14 00:31:01;;;;;;;10.07;7.00;;;;;;;;;;6063983;23;20050;-42
2022/11/14 00:33:26;;;;;;;15.05;7.43;;;;;;;;;;6064631;23;20037;-45
2022/11/14 00:35:53;;;;;;;14.68;8.32;;;;;;;;;;6065022;23;20026;-42
2022/11/14 00:38:19;;;;;;;11.75;7.00;;;;;;;;;;6064572;23;20030;-43
2022/11/14 00:40:44;;;;;;;9.68;6.22;;;;;;;;;;6065952;23;20007;-45
2022/11/14 00:43:09;;;;;;;13.32;7.78;;;;;;;;;;6064828;23;20010;-42
2022/11/14 00:45:35;;;;;;;10.90;6.57;;;;;;;;;;6066289;23;20013;-44
2022/11/14 00:48:00;;;;;;;10.93;6.65;;;;;;;;;;6064465;23;20010;-43
2022/11/14 00:50:25;;;;;;;11.27;7.30;;;;;;;;;;6065763;23;20058;-42
2022/11/14 00:52:51;;;;;;;14.15;6.82;;;;;;;;;;6065268;23;20444;-43
2022/11/14 00:55:16;;;;;;;10.40;7.03;;;;;;;;;;6064344;23;20046;-42
2022/11/14 00:57:41;;;;;;;16.58;6.43;;;;;;;;;;6065490;23;20086;-43
2022/11/14 01:00:08;;;;;;;12.80;6.35;;;;;;;;;;6064084;23;20451;-45
2022/11/14 01:02:34;;;;;;;8.85;6.60;;;;;;;;;;6064373;23;20014;-42
2022/11/14 01:05:01;;;;;;;13.00;6.35;;;;;;;;;;6065018;23;20023;-43
2022/11/14 01:07:26;;;;;;;13.60;6.30;;;;;;;;;;6065774;23;20002;-42
2022/11/14 01:09:52;;;;;;;8.43;6.10;;;;;;;;;;6064510;23;20023;-42
2022/11/14 01:12:17;;;;;;;13.13;6.47;;;;;;;;;;6064061;23;20082;-42
2022/11/14 01:14:42;;;;;;;11.88;6.30;;;;;;;;;;6064360;23;20090;-45
2022/11/14 01:17:08;;;;;;;12.52;6.90;;;;;;;;;;6064529;23;20090;-43
2022/11/14 01:19:33;;;;;;;9.18;6.35;;;;;;;;;;6064668;23;20023;-42
2022/11/14 01:21:58;;;;;;;11.85;7.05;;;;;;;;;;6065122;23;20010;-44
2022/11/14 01:24:24;;;;;;;16.67;8.10;;;;;;;;;;6064488;23;20030;-42
2022/11/14 01:26:49;;;;;;;15.10;7.25;;;;;;;;;;6064855;23;20010;-42
2022/11/14 01:29:15;;;;;;;10.05;6.80;;;;;;;;;;6063220;23;20513;-41
2022/11/14 01:31:41;;;;;;;12.82;6.68;;;;;;;;;;6065297;23;20362;-44
2022/11/14 01:34:06;;;;;;;12.13;6.47;;;;;;;;;;6064602;23;20093;-43
2022/11/14 01:36:31;;;;;;;7.88;6.47;;;;;;;;;;6064949;23;20623;-42
2022/11/14 01:38:57;;;;;;;10.05;6.68;;;;;;;;;;6064433;23;20406;-42
2022/11/14 01:41:22;;;;;;;10.15;6.60;;;;;;;;;;6064396;23;20078;-45
2022/11/14 01:43:48;;;;;;;10.38;6.57;;;;;;;;;;6063477;23;20027;-45
2022/11/14 01:46:17;;;;;;;12.88;6.90;;;;;;;;;;6065518;23;20009;-42
2022/11/14 01:48:51;;;;;;;10.00;6.78;;;;;;;;;;6064755;23;20449;-45
2022/11/14 01:51:27;;;;;;;9.23;6.43;;;;;;;;;;6066037;23;20003;-42
2022/11/14 01:53:55;;;;;;;9.70;6.80;;;;;;;;;;6065680;23;20527;-42
2022/11/14 01:56:26;;;;;;;11.82;6.40;;;;;;;;;;6065029;23;20445;-42
2022/11/14 01:58:59;;;;;;;13.68;6.72;;;;;;;;;;6063533;23;20023;-42
2022/11/14 02:01:25;;;;;;;15.43;6.35;;;;;;;;;;6064710;23;20207;-44
2022/11/14 02:03:52;;;;;;;9.55;6.32;;;;;;;;;;6063915;23;20035;-43
2022/11/14 02:06:19;;;;;;;9.45;6.07;;;;;;;;;;6065077;23;20382;-42
2022/11/14 02:08:45;;;;;;;13.35;6.65;;;;;;;;;;6063437;23;20019;-42
2022/11/14 02:11:12;;;;;;;12.02;6.13;;;;;;;;;;6064746;23;20010;-43
2022/11/14 02:13:37;;;;;;;8.77;5.55;;;;;;;;;;6063653;23;20468;-42
2022/11/14 02:16:04;;;;;;;8.02;5.38;;;;;;;;;;6038590;23;20007;-42
2022/11/14 02:18:29;;;;;;;7.85;5.18;;;;;;;;;;6064083;23;20098;-43
2022/11/14 02:20:55;;;;;;;8.18;5.47;;;;;;;;;;6064760;23;20027;-42
2022/11/14 02:23:25;;;;;;;7.22;4.97;;;;;;;;;;6064153;23;20018;-43
2022/11/14 02:25:51;;;;;;;9.77;5.60;;;;;;;;;;6064542;23;20011;-42
2022/11/14 02:28:19;;;;;;;9.27;5.25;;;;;;;;;;6063027;23;20469;-43
2022/11/14 02:30:45;;;;;;;10.50;5.28;;;;;;;;;;6065556;23;20075;-42
2022/11/14 02:33:10;;;;;;;8.27;5.13;;;;;;;;;;6064880;23;20089;-44
2022/11/14 02:35:35;;;;;;;8.57;5.05;;;;;;;;;;6063518;23;20058;-41
2022/11/14 02:38:01;;;;;;;5.35;4.68;;;;;;;;;;6063668;23;20011;-45
2022/11/14 02:40:26;;;;;;;8.48;4.93;;;;;;;;;;6065763;23;20002;-43
2022/11/14 02:42:51;;;;;;;8.52;4.97;;;;;;;;;;6063973;23;20034;-43
2022/11/14 02:45:18;;;;;;;5.93;4.47;;;;;;;;;;6063610;23;20101;-43
2022/11/14 02:47:43;;;;;;;6.78;4.82;;;;;;;;;;6064173;23;20003;-42
2022/11/14 02:50:09;;;;;;;11.93;5.30;;;;;;;;;;6064326;23;20049;-43
2022/11/14 02:52:34;;;;;;;7.90;5.20;;;;;;;;;;6064495;23;20014;-42
2022/11/14 02:55:00;;;;;;;10.48;4.88;;;;;;;;;;6063291;23;20409;-42
2022/11/14 02:57:25;;;;;;;8.30;5.40;;;;;;;;;;6063952;23;20006;-42
2022/11/14 02:59:50;;;;;;;7.38;4.80;;;;;;;;;;6063801;23;20023;-43
2022/11/14 03:02:16;;;;;;;7.05;5.00;;;;;;;;;;6064473;23;20015;-42
2022/11/14 03:04:41;;;;;;;9.57;5.47;;;;;;;;;;6063498;23;20411;-41
2022/11/14 03:07:06;;;;;;;7.45;5.00;;;;;;;;;;6063794;23;20038;-42
2022/11/14 03:09:32;;;;;;;8.52;4.88;;;;;;;;;;6063017;23;20058;-43
2022/11/14 03:11:57;;;;;;;7.03;5.35;;;;;;;;;;6038820;23;20338;-45
2022/11/14 03:14:22;;;;;;;9.75;5.55;;;;;;;;;;6062701;23;20025;-44
2022/11/14 03:16:48;;;;;;;7.60;4.97;;;;;;;;;;6063972;23;20113;-41
2022/11/14 03:19:13;;;;;;;11.98;5.30;;;;;;;;;;6064279;23;20027;-42
2022/11/14 03:21:38;;;;;;;11.30;5.10;;;;;;;;;;6065364;23;20006;-43
2022/11/14 03:24:04;;;;;;;10.75;5.32;;;;;;;;;;6063710;23;20141;-42
2022/11/14 03:26:29;;;;;;;8.88;4.93;;;;;;;;;;6062878;23;20083;-42
2022/11/14 03:28:55;;;;;;;7.60;5.38;;;;;;;;;;6064411;23;20022;-42
2022/11/14 03:31:20;;;;;;;10.35;5.07;;;;;;;;;;6065558;23;20006;-45
2022/11/14 03:33:46;;;;;;;8.32;5.68;;;;;;;;;;6063740;23;20445;-43
2022/11/14 03:36:11;;;;;;;9.98;5.05;;;;;;;;;;6063575;23;20098;-44
2022/11/14 03:38:36;;;;;;;6.78;5.22;;;;;;;;;;6063707;23;20062;-42
2022/11/14 03:41:02;;;;;;;9.60;5.00;;;;;;;;;;6064342;23;20415;-41
2022/11/14 03:43:33;;;;;;;8.77;5.22;;;;;;;;;;6063700;23;20102;-44
2022/11/14 03:46:00;;;;;;;8.68;5.03;;;;;;;;;;6064872;23;20014;-42
2022/11/14 03:48:26;;;;;;;11.63;5.35;;;;;;;;;;6062779;23;20019;-42
2022/11/14 03:50:51;;;;;;;7.45;5.25;;;;;;;;;;6063982;23;20006;-43
2022/11/14 03:53:17;;;;;;;7.78;4.90;;;;;;;;;;6063569;23;20019;-42
2022/11/14 03:55:43;;;;;;;12.95;5.18;;;;;;;;;;6064425;23;20013;-42
2022/11/14 03:58:08;;;;;;;9.20;5.03;;;;;;;;;;6063571;23;20030;-43
2022/11/14 04:00:33;;;;;;;7.72;5.10;;;;;;;;;;6063984;23;20062;-42
2022/11/14 04:02:59;;;;;;;7.47;5.05;;;;;;;;;;6063377;23;20021;-42
2022/11/14 04:05:24;;;;;;;8.40;5.43;;;;;;;;;;6063640;23;20011;-43
2022/11/14 04:07:50;;;;;;;7.05;5.40;;;;;;;;;;6065602;23;20389;-43
2022/11/14 04:10:15;;;;;;;11.15;5.50;;;;;;;;;;6064523;23;20034;-46
2022/11/14 04:12:46;;;;;;;7.53;4.50;;;;;;;;;;6065670;23;20034;-42
2022/11/14 04:15:11;;;;;;;6.82;4.93;;;;;;;;;;6065021;23;20027;-42
2022/11/14 04:17:37;;;;;;;5.95;4.72;;;;;;;;;;6065174;23;20010;-42
2022/11/14 04:20:02;;;;;;;9.82;4.47;;;;;;;;;;6065074;23;20033;-42
2022/11/14 04:22:28;;;;;;;7.35;4.90;;;;;;;;;;6066383;23;20490;-44
2022/11/14 04:24:53;;;;;;;6.65;4.70;;;;;;;;;;6065220;23;20099;-44
2022/11/14 04:27:18;;;;;;;10.68;4.95;;;;;;;;;;6066269;23;20007;-44
2022/11/14 04:29:44;;;;;;;9.35;5.15;;;;;;;;;;6066570;23;20018;-43
2022/11/14 04:32:09;;;;;;;8.32;5.10;;;;;;;;;;6065247;23;20026;-43
2022/11/14 04:34:34;;;;;;;6.57;5.03;;;;;;;;;;6064756;23;20078;-43
2022/11/14 04:37:00;;;;;;;10.10;5.50;;;;;;;;;;6065381;23;20086;-44
2022/11/14 04:39:25;;;;;;;12.45;5.43;;;;;;;;;;6064242;23;20091;-45
2022/11/14 04:41:50;;;;;;;6.30;5.00;;;;;;;;;;6066167;23;20482;-44
2022/11/14 04:44:16;;;;;;;5.78;4.55;;;;;;;;;;6065223;23;20023;-42
2022/11/14 04:46:41;;;;;;;7.15;5.00;;;;;;;;;;6064808;23;20018;-44
2022/11/14 04:49:06;;;;;;;10.00;5.75;;;;;;;;;;6064346;23;20090;-42
2022/11/14 04:51:32;;;;;;;8.52;4.80;;;;;;;;;;6064832;23;20063;-43
2022/11/14 04:53:57;;;;;;;8.70;4.95;;;;;;;;;;6065449;23;20501;-42
2022/11/14 04:56:24;;;;;;;7.95;5.28;;;;;;;;;;6065041;23;20007;-43
2022/11/14 04:58:50;;;;;;;6.60;4.90;;;;;;;;;;6064400;23;20058;-43
2022/11/14 05:01:15;;;;;;;9.32;4.80;;;;;;;;;;6065616;23;20010;-43
2022/11/14 05:03:40;;;;;;;5.38;4.78;;;;;;;;;;6064473;23;20102;-42
2022/11/14 05:06:06;;;;;;;7.15;4.88;;;;;;;;;;6065610;23;20007;-43
2022/11/14 05:08:32;;;;;;;10.20;4.85;;;;;;;;;;6063588;23;20094;-42
2022/11/14 05:10:58;;;;;;;7.63;5.15;;;;;;;;;;6065441;23;20006;-43
2022/11/14 05:13:23;;;;;;;7.25;4.93;;;;;;;;;;6064831;23;20034;-42
2022/11/14 05:15:49;;;;;;;5.38;4.60;;;;;;;;;;6064461;23;20042;-42
2022/11/14 05:18:14;;;;;;;7.70;4.88;;;;;;;;;;6063821;23;20038;-42
2022/11/14 05:20:39;;;;;;;5.45;4.97;;;;;;;;;;6064465;23;20486;-43
2022/11/14 05:23:05;;;;;;;5.47;4.60;;;;;;;;;;6064337;23;20007;-42
2022/11/14 05:25:30;;;;;;;6.78;4.00;;;;;;;;;;6064072;23;20010;-42
2022/11/14 05:27:55;;;;;;;5.30;4.57;;;;;;;;;;6063053;23;20106;-42
2022/11/14 05:30:21;;;;;;;4.65;4.15;;;;;;;;;;6062767;23;20014;-44
2022/11/14 05:32:46;;;;;;;7.28;4.40;;;;;;;;;;6063115;23;20078;-43
2022/11/14 05:35:12;;;;;;;6.35;4.78;;;;;;;;;;6061981;23;20019;-42
2022/11/14 05:37:37;;;;;;;7.18;4.30;;;;;;;;;;6062296;23;20062;-42
2022/11/14 05:40:04;;;;;;;5.93;4.43;;;;;;;;;;6063666;23;20054;-41
2022/11/14 06:04:28;;;;;;;5.00;4.47;;;;;;;;;;5085066;27;20619;-42
2022/11/14 06:06:54;;;;;;;4.93;4.28;;;;;;;;;;5076504;28;20492;-44
2022/11/14 06:09:19;;;;;;;7.10;4.70;;;;;;;;;;5070677;27;20044;-42
2022/11/14 06:11:44;;;;;;;9.65;4.53;;;;;;;;;;5067158;28;20021;-42
2022/11/14 06:14:10;;;;;;;8.48;4.55;;;;;;;;;;5056865;28;20747;-46
2022/11/14 06:16:35;;;;;;;6.65;4.57;;;;;;;;;;5061935;28;20635;-43
2022/11/14 06:19:00;;;;;;;6.38;4.47;;;;;;;;;;5058407;28;20037;-43
2022/11/14 06:21:26;;;;;;;4.63;4.07;;;;;;;;;;5061423;28;20040;-40
2022/11/14 06:23:51;;;;;;;6.15;4.32;;;;;;;;;;5054968;28;20451;-40
2022/11/14 06:26:24;;;;;;;4.53;4.15;;;;;;;;;;5062938;28;20016;-40
2022/11/14 06:28:50;;;;;;;;;;;;;;;;;;5074446;28;20052;-42
2022/11/14 06:31:16;;;;;;;8.90;4.70;;;;;;;;;;5082148;28;19924;-45
2022/11/14 06:33:42;;;;;;;5.05;4.03;;;;;;;;;;5072641;28;20028;-39
2022/11/14 06:36:08;;;;;;;6.40;4.30;;;;;;;;;;5064351;28;20037;-41
2022/11/14 06:38:35;;;;;;;7.45;4.78;;;;;;;;;;5067176;28;20029;-41
2022/11/14 06:41:05;;;;;;;9.20;4.55;;;;;;;;;;5057487;28;20112;-41
2022/11/14 06:43:38;;;;;;;4.72;4.20;;;;;;;;;;5102762;28;20160;-41
2022/11/14 06:46:04;;;;;;;4.68;3.92;;;;;;;;;;5060946;28;20037;-43
2022/11/14 06:48:30;;;;;;;8.88;4.78;;;;;;;;;;5053367;28;20036;-41
2022/11/14 06:50:57;;;;;;;5.88;4.40;;;;;;;;;;5066187;28;20116;-44
2022/11/14 06:53:23;;;;;;;7.35;4.78;;;;;;;;;;5062914;28;20067;-41
2022/11/14 06:56:06;;;;;;;7.78;4.75;;;;;;;;;;5062389;28;20416;-40
2022/11/14 06:58:40;;;;;;;6.15;4.63;;;;;;;;;;5056020;28;20036;-42
2022/11/14 07:01:10;;;;;;;5.63;4.60;;;;;;;;;;5058398;28;20052;-43
2022/11/14 07:03:36;;;;;;;5.63;4.35;;;;;;;;;;5062830;28;20047;-45
2022/11/14 07:06:03;;;;;;;7.28;4.82;;;;;;;;;;5066886;28;20412;-43
2022/11/14 07:08:29;;;;;;;10.27;4.32;;;;;;;;;;5067615;28;20476;-42
2022/11/14 07:11:09;;;;;;;5.13;4.47;;;;;;;;;;5066455;28;20020;-43
2022/11/14 07:13:35;;;;;;;5.30;4.70;;;;;;;;;;5072140;28;20036;-43
2022/11/14 07:16:01;;;;;;;4.95;4.05;;;;;;;;;;5064488;28;20046;-44
2022/11/14 07:18:32;;;;;;;8.43;4.63;;;;;;;;;;5061986;28;20105;-45
2022/11/14 07:21:02;;;;;;;5.32;4.10;;;;;;;;;;5043293;28;20477;-40
2022/11/14 07:23:28;;;;;;;5.57;4.20;;;;;;;;;;5048238;28;20041;-41
2022/11/14 07:25:53;;;;;;;6.13;4.68;;;;;;;;;;5054770;28;20017;-41
2022/11/14 07:28:19;;;;;;;6.65;4.40;;;;;;;;;;5056398;28;20039;-42
2022/11/14 07:30:44;;;;;;;4.97;4.47;;;;;;;;;;5051479;28;20421;-41
2022/11/14 07:33:10;;;;;;;7.30;5.30;;;;;;;;;;5053341;28;20025;-41
2022/11/14 07:35:38;;;;;;;7.47;4.53;;;;;;;;;;5048463;28;20041;-41
2022/11/14 07:38:03;;;;;;;5.07;4.35;;;;;;;;;;5049948;28;20074;-43
2022/11/14 07:40:29;;;;;;;5.82;3.83;;;;;;;;;;5054380;28;20473;-43
2022/11/14 07:42:59;;;;;;;4.63;4.22;;;;;;;;;;5049809;28;20030;-41
2022/11/14 07:45:24;;;;;;;7.47;4.68;;;;;;;;;;5070448;28;20494;-43
2022/11/14 07:47:53;;;;;;;7.38;4.50;;;;;;;;;;5075218;28;20104;-41
2022/11/14 07:50:19;;;;;;;7.75;5.03;;;;;;;;;;5049091;28;20052;-43
2022/11/14 07:52:49;;;;;;;5.50;4.40;;;;;;;;;;5052312;28;20025;-40
2022/11/14 07:55:15;;;;;;;5.18;4.28;;;;;;;;;;5046167;28;20037;-41
2022/11/14 07:57:40;;;;;;;5.50;4.45;;;;;;;;;;5048394;28;20029;-40
2022/11/14 08:00:07;;;;;;;9.20;4.40;;;;;;;;;;5051289;28;20553;-40
2022/11/14 08:02:32;;;;;;;5.07;4.38;;;;;;;;;;5052667;28;20048;-41
2022/11/14 08:04:57;;;;;;;5.80;4.63;;;;;;;;;;5063208;28;20240;-42
2022/11/14 08:07:22;;;;;;;5.78;4.22;;;;;;;;;;5064454;28;20115;-41
2022/11/14 08:09:48;;;;;;;4.57;3.83;;;;;;;;;;5064597;28;20179;-41
2022/11/14 08:12:13;;;;;;;6.63;4.60;;;;;;;;;;5066962;28;20016;-42
2022/11/14 08:14:39;;;;;;;6.03;4.10;;;;;;;;;;5065586;28;20489;-41
2022/11/14 08:17:05;;;;;;;6.05;4.07;;;;;;;;;;5066523;28;20024;-42
2022/11/14 08:19:30;;;;;;;5.15;4.22;;;;;;;;;;5062053;28;20036;-43
2022/11/14 08:21:55;;;;;;;10.25;4.63;;;;;;;;;;5065059;28;20021;-43
2022/11/14 08:24:21;;;;;;;4.13;3.80;;;;;;;;;;5066721;28;20047;-43
2022/11/14 08:26:46;;;;;;;6.78;3.92;;;;;;;;;;5065195;28;20116;-42
2022/11/14 08:29:11;;;;;;;8.18;4.03;;;;;;;;;;5063984;28;20704;-44
2022/11/14 08:31:37;;;;;;;5.53;4.10;;;;;;;;;;5065534;28;20088;-43
2022/11/14 08:34:02;;;;;;;5.35;4.28;;;;;;;;;;5065430;28;20043;-43
2022/11/14 08:36:27;;;;;;;7.60;4.28;;;;;;;;;;5067032;28;20028;-43
2022/11/14 08:38:53;;;;;;;6.88;4.75;;;;;;;;;;5066129;28;20130;-43
2022/11/14 08:41:18;;;;;;;5.55;4.22;;;;;;;;;;5067293;28;20119;-41
2022/11/14 08:43:44;;;;;;;10.20;4.88;;;;;;;;;;5063317;28;20500;-40
2022/11/14 08:46:09;;;;;;;5.35;4.13;;;;;;;;;;5063439;28;20036;-41
2022/11/14 08:48:34;;;;;;;6.10;4.20;;;;;;;;;;5062899;28;20041;-41
2022/11/14 08:51:04;;;;;;;6.47;4.38;;;;;;;;;;5066451;28;20036;-42
2022/11/14 08:53:30;;;;;;;6.82;4.40;;;;;;;;;;5066907;28;20079;-42
2022/11/14 08:55:55;;;;;;;6.43;4.85;;;;;;;;;;5050186;28;20479;-41
2022/11/14 08:58:20;;;;;;;6.13;4.20;;;;;;;;;;5055427;28;20036;-42
2022/11/14 09:00:46;;;;;;;4.05;3.72;;;;;;;;;;5071171;28;20020;-43
2022/11/14 09:03:15;;;;;;;5.40;4.28;;;;;;;;;;5069857;28;20136;-42
2022/11/14 09:05:41;;;;;;;5.55;4.28;;;;;;;;;;5067169;28;20080;-42
2022/11/14 09:08:07;;;;;;;5.03;4.03;;;;;;;;;;5066876;28;20158;-42
2022/11/14 09:10:33;;;;;;;5.20;4.10;;;;;;;;;;5069550;28;20104;-41
2022/11/14 09:12:59;;;;;;;5.22;4.45;;;;;;;;;;5069016;28;20419;-41
2022/11/14 09:15:26;;;;;;;5.65;4.25;;;;;;;;;;5067566;28;20047;-41
2022/11/14 09:17:53;;;;;;;6.57;4.32;;;;;;;;;;5064536;28;20093;-43
2022/11/14 09:20:19;;;;;;;7.28;4.32;;;;;;;;;;5049196;28;20051;-42
2022/11/14 09:22:45;;;;;;;6.72;4.50;;;;;;;;;;5043473;28;20028;-42
2022/11/14 09:25:10;;;;;;;5.20;4.45;;;;;;;;;;5057670;28;20033;-42
2022/11/14 09:27:36;;;;;;;7.30;4.32;;;;;;;;;;5051037;28;20492;-43
2022/11/14 09:30:02;;;;;;;5.82;4.85;;;;;;;;;;5053029;28;20043;-42
2022/11/14 09:32:27;;;;;;;5.28;4.63;;;;;;;;;;5050506;28;20522;-41
2022/11/14 09:34:52;;;;;;;5.80;4.22;;;;;;;;;;5048336;28;20500;-41
2022/11/14 09:37:18;;;;;;;7.60;4.32;;;;;;;;;;5050695;28;20033;-42
2022/11/14 09:39:43;;;;;;;13.57;4.43;;;;;;;;;;5049072;28;20179;-40
2022/11/14 09:42:19;;;;;;;4.70;4.30;;;;;;;;;;5048628;28;20126;-42
2022/11/14 09:44:47;;;;;;;7.63;4.20;;;;;;;;;;5050340;28;20424;-45
2022/11/14 09:47:20;;;;;;;7.72;4.38;;;;;;;;;;5046892;28;20580;-40
2022/11/14 09:49:50;;;;;;;4.85;4.05;;;;;;;;;;5041621;28;20033;-41
2022/11/14 09:52:27;;;;;;;5.00;4.50;;;;;;;;;;5045599;28;20108;-42
2022/11/14 09:54:58;;;;;;;6.57;4.38;;;;;;;;;;5045743;28;20038;-42
2022/11/14 09:57:24;;;;;;;8.18;4.55;;;;;;;;;;5049837;28;20125;-41
2022/11/14 09:59:50;;;;;;;5.70;4.20;;;;;;;;;;5050126;28;20044;-41
2022/11/14 10:02:39;;;;;;;5.60;4.93;;;;;;;;;;5047875;28;20045;-41
2022/11/14 10:05:23;;;;;;;5.93;4.10;;;;;;;;;;5042370;28;20044;-42
2022/11/14 10:08:16;;;;;;;7.75;4.13;;;;;;;;;;5051175;28;20043;-44
2022/11/14 10:10:49;;;;;;;7.85;4.88;;;;;;;;;;5068070;28;20198;-41
2022/11/14 10:13:38;;;;;;;15.88;4.78;;;;;;;;;;5070312;28;20044;-41
2022/11/14 10:16:14;;;;;;;5.55;4.80;;;;;;;;;;5069621;28;20036;-41
2022/11/14 10:19:04;;;;;;;4.55;4.15;;;;;;;;;;5066251;28;20075;-42
2022/11/14 10:21:35;;;;;;;5.97;4.43;;;;;;;;;;5065935;28;20035;-41
2022/11/14 10:24:22;;;;;;;5.43;4.30;;;;;;;;;;5069966;28;20056;-41
2022/11/14 10:27:00;;;;;;;8.18;5.00;;;;;;;;;;5067828;28;20032;-42
2022/11/14 10:29:37;;;;;;;6.95;4.60;;;;;;;;;;5072592;28;20040;-41
2022/11/14 10:32:27;;;;;;;7.05;4.72;;;;;;;;;;5063007;28;20042;-42
2022/11/14 10:35:03;;;;;;;8.18;4.50;;;;;;;;;;5061930;28;20128;-43
2022/11/14 10:37:48;;;;;;;8.48;4.82;;;;;;;;;;5069312;28;20016;-44
2022/11/14 10:43:18;;;;;;;5.50;5.00;;;;;;;;;;5043401;27;21003;-42
2022/11/14 10:46:11;;;;;;;5.30;4.57;;;;;;;;;;5016979;28;20469;-43
2022/11/14 10:48:43;;;;;;;;;;;;;;;;;;5021513;28;20124;-43
2022/11/14 10:51:45;;;;;;;7.05;4.88;;;;;;;;;;5018850;28;20389;-45
2022/11/14 10:54:21;;;;;;;8.40;4.43;;;;;;;;;;5020487;28;20042;-44
2022/11/14 10:56:52;;;;;;;8.50;4.70;;;;;;;;;;5021386;28;20025;-43
2022/11/14 10:59:18;;;;;;;5.93;4.68;;;;;;;;;;5017359;28;20038;-44
2022/11/14 11:01:50;;;;;;;6.63;4.50;;;;;;;;;;5019940;28;20060;-43
2022/11/14 11:04:26;;;;;;;5.93;4.78;;;;;;;;;;5019157;28;20041;-43
2022/11/14 11:06:54;;;;;;;5.07;4.43;;;;;;;;;;5017646;28;20111;-45
2022/11/14 11:12:12;;;;;;;12.27;4.80;;;;;;;;;;5019184;28;20397;-43
2022/11/14 11:14:38;;;;;;;6.88;4.88;;;;;;;;;;5021833;28;20129;-43
2022/11/14 11:17:23;;;;;;;5.60;5.10;;;;;;;;;;5020457;28;20502;-42
2022/11/14 11:19:49;;;;;;;6.55;4.85;;;;;;;;;;5017119;28;20045;-45
2022/11/14 11:22:43;;;;;;;8.48;5.15;;;;;;;;;;5019321;28;20437;-42
2022/11/14 11:25:23;;;;;;;8.00;5.30;;;;;;;;;;5018064;28;20422;-43
2022/11/14 11:28:04;;;;;;;6.95;4.43;;;;;;;;;;5018390;28;20482;-43
2022/11/14 11:30:29;;;;;;;5.97;5.00;;;;;;;;;;5015336;28;20379;-45
2022/11/14 11:32:54;;;;;;;9.55;5.25;;;;;;;;;;5018912;28;20029;-42
2022/11/14 11:35:20;;;;;;;7.40;5.05;;;;;;;;;;5021842;28;20100;-43
2022/11/14 11:37:53;;;;;;;6.30;5.38;;;;;;;;;;5021740;28;20026;-44
2022/11/14 11:40:23;;;;;;;8.25;4.93;;;;;;;;;;5018490;28;20065;-42
2022/11/14 11:42:57;;;;;;;7.18;5.18;;;;;;;;;;5020039;28;20058;-44
2022/11/14 11:45:23;;;;;;;7.10;4.85;;;;;;;;;;5023161;28;20049;-43
2022/11/14 11:48:07;;;;;;;5.90;4.82;;;;;;;;;;5019491;28;20021;-42
2022/11/14 11:50:32;;;;;;;9.25;5.07;;;;;;;;;;5015304;28;20042;-43
2022/11/14 11:53:33;;;;;;;10.93;5.18;;;;;;;;;;5012964;28;20037;-43
2022/11/14 11:56:03;;;;;;;7.70;5.10;;;;;;;;;;5006782;28;20026;-42
2022/11/14 12:01:34;;;;;;;5.78;5.18;;;;;;;;;;5048682;28;20629;-44
2022/11/14 12:04:00;;;;;;;8.38;4.85;;;;;;;;;;5043610;28;20068;-41
2022/11/14 12:06:28;;;;;;;8.63;4.93;;;;;;;;;;5039256;28;20056;-42
2022/11/14 12:09:18;;;;;;;7.70;5.47;;;;;;;;;;5040352;28;20037;-43
2022/11/14 12:11:51;;;;;;;5.45;4.95;;;;;;;;;;5040492;28;20041;-40
2022/11/14 12:14:39;;;;;;;6.25;5.28;;;;;;;;;;5040396;28;20050;-41
2022/11/14 12:17:36;;;;;;;7.65;5.55;;;;;;;;;;5052061;28;20509;-42
2022/11/14 12:20:32;;;;;;;7.05;5.80;;;;;;;;;;5038961;28;20099;-42
2022/11/14 12:23:12;;;;;;;5.13;4.63;;;;;;;;;;5035599;28;20555;-41
2022/11/14 12:26:01;;;;;;;13.23;5.15;;;;;;;;;;5034259;28;20033;-42
2022/11/14 12:28:41;;;;;;;6.25;5.40;;;;;;;;;;5040099;28;20052;-42
2022/11/14 12:31:13;;;;;;;5.57;5.05;;;;;;;;;;5039833;28;20108;-41
2022/11/14 12:33:44;;;;;;;6.07;5.32;;;;;;;;;;5039482;28;20033;-42
2022/11/14 12:36:11;;;;;;;8.43;5.63;;;;;;;;;;5035706;28;20048;-41
2022/11/14 12:38:49;;;;;;;7.20;5.32;;;;;;;;;;5042547;28;20040;-43
2022/11/14 12:41:28;;;;;;;6.95;5.88;;;;;;;;;;5039810;28;20021;-41
2022/11/14 12:44:25;;;;;;;5.75;5.18;;;;;;;;;;5036783;28;20041;-41
2022/11/14 12:47:18;;;;;;;6.47;5.00;;;;;;;;;;5035795;28;20509;-43
2022/11/14 12:49:46;;;;;;;7.03;4.90;;;;;;;;;;5034166;28;20421;-41
2022/11/14 12:52:40;;;;;;;5.45;4.82;;;;;;;;;;5037798;28;20025;-42
2022/11/14 12:55:25;;;;;;;7.90;5.57;;;;;;;;;;5035614;28;20056;-41
2022/11/14 12:58:07;;;;;;;6.95;5.15;;;;;;;;;;5040103;28;20040;-41
2022/11/14 13:00:44;;;;;;;5.63;5.10;;;;;;;;;;5037727;28;20057;-43
2022/11/14 13:04:07;;;;;;;7.05;5.30;;;;;;;;;;5039634;28;20040;-44
2022/11/14 13:06:35;;;;;;;6.22;5.63;;;;;;;;;;5018222;28;20065;-42
2022/11/14 13:09:06;;;;;;;5.65;5.07;;;;;;;;;;5011899;28;20647;-41
2022/11/14 13:23:25;;;;;;;6.18;5.25;;;;;;;;;;5004926;28;20124;-41
2022/11/14 13:26:08;;;;;;;11.05;5.35;;;;;;;;;;5001752;28;20034;-43
2022/11/14 13:28:36;;;;;;;7.72;5.75;;;;;;;;;;5000929;28;20525;-41
2022/11/14 13:31:14;;;;;;;8.85;5.93;;;;;;;;;;5002853;28;20050;-41
2022/11/14 13:33:45;;;;;;;8.70;5.78;;;;;;;;;;5001094;28;20042;-42
2022/11/14 13:36:26;;;;;;;7.63;6.80;;;;;;;;;;5002659;28;20228;-41
2022/11/14 13:39:10;;;;;;;9.50;5.95;;;;;;;;;;5028875;28;20041;-42
2022/11/14 13:41:54;;;;;;;6.95;5.63;;;;;;;;;;5022698;28;20033;-43
2022/11/14 13:44:56;;;;;;;7.80;5.68;;;;;;;;;;5027303;28;20033;-42
2022/11/14 13:47:49;;;;;;;8.10;6.13;;;;;;;;;;5025496;28;20040;-41
2022/11/14 13:50:25;;;;;;;8.27;7.13;;;;;;;;;;5024190;28;20051;-44
2022/11/14 13:52:50;;;;;;;11.45;8.05;;;;;;;;;;5021499;28;20064;-44
2022/11/14 13:55:31;;;;;;;10.73;7.03;;;;;;;;;;5019923;28;20061;-43
2022/11/14 13:58:27;;;;;;;8.63;6.68;;;;;;;;;;5018462;28;20025;-42
2022/11/14 14:01:04;;;;;;;10.38;6.82;;;;;;;;;;5025040;28;20121;-44
2022/11/14 14:03:46;;;;;;;9.18;6.03;;;;;;;;;;5025465;28;20045;-42
2022/11/14 14:06:42;;;;;;;8.00;6.00;;;;;;;;;;5023695;28;20409;-42
2022/11/14 14:09:27;;;;;;;9.05;7.10;;;;;;;;;;5025977;28;20447;-44
2022/11/14 14:12:27;;;;;;;10.80;6.97;;;;;;;;;;5017341;28;20548;-44
2022/11/14 14:15:26;;;;;;;8.73;6.40;;;;;;;;;;4980777;28;20133;-46
2022/11/14 14:18:22;;;;;;;9.65;6.43;;;;;;;;;;4982569;28;20740;-42
2022/11/14 14:20:56;;;;;;;6.90;6.20;;;;;;;;;;4965755;28;20133;-42
2022/11/14 14:23:27;;;;;;;11.70;6.30;;;;;;;;;;4964455;28;20039;-42
2022/11/14 14:26:02;;;;;;;11.65;5.93;;;;;;;;;;4964484;28;20559;-42
2022/11/14 14:28:52;;;;;;;7.10;6.10;;;;;;;;;;4968321;28;20133;-41
2022/11/14 14:31:24;;;;;;;9.75;7.10;;;;;;;;;;4983884;28;20037;-42
2022/11/14 14:33:51;;;;;;;7.68;6.50;;;;;;;;;;4982523;28;20034;-44
2022/11/14 14:36:22;;;;;;;8.20;6.55;;;;;;;;;;4984115;28;20053;-42
2022/11/14 14:38:48;;;;;;;11.68;6.55;;;;;;;;;;4984485;28;20038;-42
2022/11/14 14:41:17;;;;;;;11.50;6.97;;;;;;;;;;4985465;28;20129;-42
2022/11/14 14:43:49;;;;;;;9.85;7.43;;;;;;;;;;4983618;28;20047;-41
2022/11/14 14:46:15;;;;;;;7.28;6.10;;;;;;;;;;4980361;28;20042;-42
2022/11/14 14:48:42;;;;;;;9.00;6.35;;;;;;;;;;4982425;28;20060;-42
2022/11/14 14:51:13;;;;;;;10.68;6.68;;;;;;;;;;5008354;28;20045;-44
2022/11/14 14:53:38;;;;;;;11.25;6.22;;;;;;;;;;5022128;28;20034;-44
2022/11/14 14:56:15;;;;;;;11.15;6.57;;;;;;;;;;5022242;28;20492;-42
2022/11/14 14:58:41;;;;;;;7.82;6.32;;;;;;;;;;5026843;28;20490;-43
2022/11/14 15:01:36;;;;;;;8.27;6.60;;;;;;;;;;5020395;28;20064;-42
2022/11/14 15:04:07;;;;;;;7.80;6.25;;;;;;;;;;5012793;28;20558;-42
2022/11/14 15:21:16;;;;;;;21.48;9.90;;;;;;;;;;4984184;28;20661;-43
2022/11/14 15:23:41;;;;;;;12.95;8.90;;;;;;;;;;4990776;28;20394;-45
2022/11/14 15:26:17;;;;;;;12.30;9.00;;;;;;;;;;5023343;28;20030;-41
2022/11/14 15:28:43;;;;;;;11.63;7.90;;;;;;;;;;5022646;28;20064;-44
2022/11/14 15:31:18;;;;;;;12.30;8.20;;;;;;;;;;5021110;28;20042;-42
2022/11/14 15:33:43;;;;;;;20.27;9.38;;;;;;;;;;5018635;28;20060;-41
2022/11/14 15:36:12;;;;;;;15.50;9.63;;;;;;;;;;5017608;28;20034;-41
2022/11/14 15:38:37;;;;;;;11.10;7.72;;;;;;;;;;5019311;28;20430;-42
2022/11/14 15:42:54;;;;;;;10.45;7.20;;;;;;;;;;5042854;28;20981;-44
2022/11/14 15:45:28;;;;;;;11.00;6.35;;;;;;;;;;5015343;28;20033;-51
2022/11/14 15:48:00;;;;;;;8.30;6.90;;;;;;;;;;5021039;28;20034;-39
2022/11/14 15:50:32;;;;;;;9.45;6.97;;;;;;;;;;5015944;28;20494;-42
2022/11/14 15:53:02;;;;;;;14.77;7.40;;;;;;;;;;5012172;28;20494;-41
2022/11/14 15:55:27;;;;;;;9.20;6.93;;;;;;;;;;5015157;28;20051;-41
2022/11/14 15:57:53;;;;;;;9.32;6.50;;;;;;;;;;5020023;28;20030;-39